Time;durP1;ratioP1;P1;durP2;ratioP2;P2;SDS_P1;SDS_P2;PMS_P1;PMS_P2;Temp;Humidity;BMP_temperature;BMP_pressure;BME280_temperature;BME280_humidity;BME280_pressure;Samples;Min_cycle;Max_cycle;Signal;HPM_P1;HPM_P2
2022/03/10 00:00:00;;;;;;;41.92;14.38;;;;;;;;;;6230714;28;20056;-58
2022/03/10 00:03:01;;;;;;;55.15;18.65;;;;;;;;;;6231454;28;20061;-54
2022/03/10 00:06:02;;;;;;;47.65;18.20;;;;;;;;;;6230143;28;20090;-56
2022/03/10 00:09:03;;;;;;;56.80;21.35;;;;;;;;;;6225259;28;20045;-55
2022/03/10 00:12:04;;;;;;;52.78;18.73;;;;;;;;;;6230897;28;20136;-58
2022/03/10 00:15:08;;;;;;;60.92;22.08;;;;;;;;;;6233288;28;20049;-54
2022/03/10 00:18:09;;;;;;;58.17;19.80;;;;;;;;;;6230842;28;20381;-59
2022/03/10 00:21:10;;;;;;;58.78;19.67;;;;;;;;;;6233706;28;20099;-56
2022/03/10 00:24:10;;;;;;;65.80;18.95;;;;;;;;;;6233453;28;20470;-59
2022/03/10 00:27:11;;;;;;;58.17;21.23;;;;;;;;;;6229067;28;21079;-59
2022/03/10 00:30:12;;;;;;;59.72;20.02;;;;;;;;;;6231736;28;20054;-57
2022/03/10 00:33:14;;;;;;;59.45;19.60;;;;;;;;;;6231052;28;20743;-56
2022/03/10 00:36:15;;;;;;;61.28;19.90;;;;;;;;;;6231033;28;20045;-60
2022/03/10 00:39:16;;;;;;;71.95;22.10;;;;;;;;;;6226989;28;20077;-57
2022/03/10 00:42:16;;;;;;;63.03;19.67;;;;;;;;;;6229781;28;20053;-57
2022/03/10 00:45:18;;;;;;;62.03;22.15;;;;;;;;;;6233697;28;20049;-60
2022/03/10 00:48:18;;;;;;;57.90;19.95;;;;;;;;;;6229262;28;20875;-59
2022/03/10 00:51:19;;;;;;;68.93;21.98;;;;;;;;;;6230384;28;20049;-56
2022/03/10 00:54:19;;;;;;;75.97;23.02;;;;;;;;;;6231739;28;20057;-55
2022/03/10 00:57:21;;;;;;;63.60;21.20;;;;;;;;;;6230798;28;20538;-54
2022/03/10 01:00:28;;;;;;;64.53;21.10;;;;;;;;;;6228851;28;20050;-59
2022/03/10 01:03:28;;;;;;;62.67;20.98;;;;;;;;;;6235666;28;20103;-59
2022/03/10 01:06:29;;;;;;;68.43;20.85;;;;;;;;;;6231452;28;20077;-61
2022/03/10 01:09:30;;;;;;;62.38;21.00;;;;;;;;;;6229974;28;20562;-57
2022/03/10 01:12:31;;;;;;;66.53;20.30;;;;;;;;;;6234418;28;20042;-60
2022/03/10 01:15:31;;;;;;;71.80;23.63;;;;;;;;;;6231164;28;20046;-60
2022/03/10 01:18:32;;;;;;;64.88;20.50;;;;;;;;;;6229050;28;20693;-58
2022/03/10 01:21:33;;;;;;;67.95;20.92;;;;;;;;;;6233961;28;20150;-56
2022/03/10 01:24:34;;;;;;;67.85;21.98;;;;;;;;;;6232493;28;20616;-57
2022/03/10 01:27:35;;;;;;;66.82;20.15;;;;;;;;;;6229535;28;20492;-60
2022/03/10 01:30:36;;;;;;;59.13;18.75;;;;;;;;;;6233349;28;20055;-59
2022/03/10 01:33:37;;;;;;;55.53;16.90;;;;;;;;;;6233773;28;20497;-61
2022/03/10 01:36:37;;;;;;;49.55;15.95;;;;;;;;;;6227620;28;20137;-61
2022/03/10 01:39:38;;;;;;;51.63;15.27;;;;;;;;;;6230922;28;20081;-56
2022/03/10 01:42:39;;;;;;;52.30;17.42;;;;;;;;;;6232324;28;20046;-58
2022/03/10 01:45:39;;;;;;;53.88;16.40;;;;;;;;;;6231402;28;20068;-57
2022/03/10 01:48:40;;;;;;;46.65;14.07;;;;;;;;;;6228731;28;20084;-59
2022/03/10 01:51:41;;;;;;;55.30;16.77;;;;;;;;;;6229063;28;20089;-58
2022/03/10 01:54:42;;;;;;;45.90;15.23;;;;;;;;;;6229349;28;20045;-55
2022/03/10 01:57:44;;;;;;;54.33;17.73;;;;;;;;;;6226024;28;20053;-57
2022/03/10 02:00:45;;;;;;;49.92;17.02;;;;;;;;;;6229370;28;20056;-59
2022/03/10 02:03:45;;;;;;;48.03;14.90;;;;;;;;;;6243568;28;20464;-60
2022/03/10 02:06:46;;;;;;;51.78;15.18;;;;;;;;;;6241156;28;20050;-60
2022/03/10 02:13:06;;;;;;;47.85;14.73;;;;;;;;;;6230785;28;20041;-57
2022/03/10 02:19:33;;;;;;;47.13;12.30;;;;;;;;;;6228096;28;20048;-59
2022/03/10 02:22:34;;;;;;;44.25;12.48;;;;;;;;;;6224500;28;20041;-56
2022/03/10 02:25:36;;;;;;;48.15;14.25;;;;;;;;;;6230311;28;20049;-58
2022/03/10 02:28:37;;;;;;;;;;;;;;;;;;6225898;28;20638;-60
2022/03/10 02:31:40;;;;;;;34.40;10.45;;;;;;;;;;6228577;28;19927;-58
2022/03/10 02:34:43;;;;;;;37.55;11.27;;;;;;;;;;6227425;28;20045;-59
2022/03/10 02:37:44;;;;;;;31.35;11.07;;;;;;;;;;6228381;28;20057;-60
2022/03/10 02:40:47;;;;;;;40.75;12.23;;;;;;;;;;6231418;28;20042;-56
2022/03/10 02:43:47;;;;;;;34.65;12.77;;;;;;;;;;6230523;28;20452;-56
2022/03/10 02:46:48;;;;;;;34.97;10.38;;;;;;;;;;6229780;28;20078;-55
2022/03/10 02:49:49;;;;;;;27.40;9.15;;;;;;;;;;6228972;28;20051;-59
2022/03/10 02:52:49;;;;;;;29.15;9.88;;;;;;;;;;6234710;28;20061;-58
2022/03/10 02:55:50;;;;;;;24.73;8.73;;;;;;;;;;6227772;28;20119;-55
2022/03/10 02:58:51;;;;;;;23.17;7.03;;;;;;;;;;6228895;28;20076;-59
2022/03/10 03:01:52;;;;;;;20.48;7.22;;;;;;;;;;6231123;28;20046;-54
2022/03/10 03:04:53;;;;;;;17.63;6.45;;;;;;;;;;6231886;28;20057;-58
2022/03/10 03:07:53;;;;;;;20.90;7.63;;;;;;;;;;6230149;28;20049;-59
2022/03/10 03:10:54;;;;;;;22.90;7.90;;;;;;;;;;6230235;28;20091;-59
2022/03/10 03:13:56;;;;;;;20.38;8.07;;;;;;;;;;6228309;28;20132;-59
2022/03/10 03:16:57;;;;;;;25.40;8.65;;;;;;;;;;6228206;28;21242;-58
2022/03/10 03:19:58;;;;;;;22.40;8.23;;;;;;;;;;6226097;28;20041;-57
2022/03/10 03:22:59;;;;;;;24.10;8.88;;;;;;;;;;6219071;28;20426;-58
2022/03/10 03:25:59;;;;;;;22.83;8.15;;;;;;;;;;6228127;28;20079;-58
2022/03/10 03:29:00;;;;;;;27.13;9.35;;;;;;;;;;6223465;28;20050;-60
2022/03/10 03:32:01;;;;;;;25.80;9.15;;;;;;;;;;6227350;28;20724;-54
2022/03/10 03:35:02;;;;;;;27.13;9.20;;;;;;;;;;6228737;28;20203;-56
2022/03/10 03:38:03;;;;;;;22.70;8.50;;;;;;;;;;6226604;28;20053;-60
2022/03/10 03:41:04;;;;;;;31.90;9.65;;;;;;;;;;6224004;28;20108;-59
2022/03/10 03:44:06;;;;;;;28.17;9.70;;;;;;;;;;6228926;28;20052;-59
2022/03/10 03:47:07;;;;;;;28.33;9.52;;;;;;;;;;6229116;28;20080;-59
2022/03/10 03:50:08;;;;;;;26.73;9.85;;;;;;;;;;6219800;28;20099;-61
2022/03/10 03:53:09;;;;;;;28.33;10.20;;;;;;;;;;6226780;28;20110;-58
2022/03/10 03:56:10;;;;;;;33.47;11.18;;;;;;;;;;6228901;28;20132;-57
2022/03/10 03:59:10;;;;;;;28.38;11.38;;;;;;;;;;6228465;28;20042;-59
2022/03/10 04:02:11;;;;;;;31.45;10.98;;;;;;;;;;6223702;28;20132;-60
2022/03/10 04:05:13;;;;;;;31.83;10.45;;;;;;;;;;6229424;28;20089;-58
2022/03/10 04:08:14;;;;;;;26.13;9.90;;;;;;;;;;6224945;28;20095;-59
2022/03/10 04:11:16;;;;;;;33.25;10.73;;;;;;;;;;6228750;28;20114;-55
2022/03/10 04:14:18;;;;;;;26.70;11.13;;;;;;;;;;6229677;28;20413;-56
2022/03/10 04:17:19;;;;;;;27.95;10.00;;;;;;;;;;6235408;28;20543;-58
2022/03/10 04:20:20;;;;;;;34.97;10.45;;;;;;;;;;6230034;28;20097;-52
2022/03/10 04:23:20;;;;;;;32.80;10.35;;;;;;;;;;6237505;28;20113;-60
2022/03/10 04:26:21;;;;;;;32.90;12.07;;;;;;;;;;6232837;28;20076;-57
2022/03/10 04:29:25;;;;;;;29.65;10.05;;;;;;;;;;6233697;28;20049;-56
2022/03/10 04:32:25;;;;;;;31.55;10.95;;;;;;;;;;6237642;28;20548;-57
2022/03/10 04:35:27;;;;;;;27.42;8.95;;;;;;;;;;6231860;28;20046;-58
2022/03/10 04:38:27;;;;;;;24.67;9.63;;;;;;;;;;6232917;28;20046;-59
2022/03/10 04:41:28;;;;;;;28.00;12.32;;;;;;;;;;6227345;28;20135;-52
2022/03/10 04:44:29;;;;;;;26.92;10.70;;;;;;;;;;6233923;28;20052;-58
2022/03/10 04:47:29;;;;;;;26.48;9.68;;;;;;;;;;6236622;28;20413;-51
2022/03/10 04:50:30;;;;;;;22.23;9.57;;;;;;;;;;6229172;28;20050;-53
2022/03/10 04:53:31;;;;;;;22.08;9.32;;;;;;;;;;6233590;28;20225;-57
2022/03/10 04:56:31;;;;;;;24.75;8.75;;;;;;;;;;6228149;28;20052;-57
2022/03/10 04:59:32;;;;;;;24.98;9.57;;;;;;;;;;6232809;28;20052;-61
2022/03/10 05:02:33;;;;;;;23.60;8.90;;;;;;;;;;6230408;28;20117;-58
2022/03/10 05:05:33;;;;;;;24.02;9.13;;;;;;;;;;6230491;28;20496;-59
2022/03/10 05:08:34;;;;;;;19.55;8.07;;;;;;;;;;6233236;28;20144;-59
2022/03/10 05:11:35;;;;;;;24.92;9.90;;;;;;;;;;6230885;28;20042;-61
2022/03/10 05:14:36;;;;;;;24.77;9.80;;;;;;;;;;6233575;28;20073;-60
2022/03/10 05:17:36;;;;;;;25.35;9.77;;;;;;;;;;6232956;28;20069;-60
2022/03/10 05:20:37;;;;;;;23.05;10.15;;;;;;;;;;6228917;28;20056;-60
2022/03/10 05:23:37;;;;;;;29.50;10.65;;;;;;;;;;6230856;28;20053;-58
2022/03/10 05:26:38;;;;;;;28.30;9.95;;;;;;;;;;6229740;28;20133;-59
2022/03/10 05:29:43;;;;;;;29.23;9.50;;;;;;;;;;6231484;28;20497;-60
2022/03/10 05:32:45;;;;;;;25.42;9.98;;;;;;;;;;6230022;28;20128;-59
2022/03/10 05:35:46;;;;;;;23.52;9.45;;;;;;;;;;6229705;28;20050;-57
2022/03/10 05:38:47;;;;;;;28.48;10.23;;;;;;;;;;6229800;28;20088;-61
2022/03/10 05:41:47;;;;;;;26.88;11.25;;;;;;;;;;6228499;28;20038;-56
2022/03/10 05:44:48;;;;;;;44.75;13.55;;;;;;;;;;6224611;28;20129;-58
2022/03/10 05:47:51;;;;;;;35.83;12.00;;;;;;;;;;6230572;28;20524;-59
2022/03/10 05:50:51;;;;;;;;;;;;;;;;;;6225292;28;20605;-58
2022/03/10 05:53:52;;;;;;;45.08;13.18;;;;;;;;;;6233856;28;19975;-62
2022/03/10 05:56:53;;;;;;;35.22;11.10;;;;;;;;;;6231223;28;20064;-62
2022/03/10 05:59:53;;;;;;;100.57;23.17;;;;;;;;;;6231865;28;20381;-59
2022/03/10 06:02:54;;;;;;;70.03;18.48;;;;;;;;;;6229740;28;20109;-61
2022/03/10 06:05:54;;;;;;;56.38;15.98;;;;;;;;;;6233122;28;20057;-60
2022/03/10 06:08:55;;;;;;;47.40;13.98;;;;;;;;;;6219252;28;20829;-62
2022/03/10 06:11:56;;;;;;;73.60;17.08;;;;;;;;;;6230908;28;20049;-58
2022/03/10 06:15:02;;;;;;;33.35;11.98;;;;;;;;;;6229963;28;20049;-60
2022/03/10 06:18:04;;;;;;;54.28;14.88;;;;;;;;;;6227726;28;20137;-59
2022/03/10 06:21:05;;;;;;;55.28;15.15;;;;;;;;;;6238115;28;20100;-56
2022/03/10 06:24:06;;;;;;;143.63;28.42;;;;;;;;;;6234639;28;20057;-53
2022/03/10 06:27:07;;;;;;;104.78;23.63;;;;;;;;;;6242160;28;20058;-57
2022/03/10 06:30:08;;;;;;;84.90;20.73;;;;;;;;;;6240721;28;20060;-57
2022/03/10 06:33:09;;;;;;;39.30;13.10;;;;;;;;;;6235750;28;20056;-60
2022/03/10 06:36:11;;;;;;;88.55;22.60;;;;;;;;;;6232627;28;20054;-59
2022/03/10 06:39:12;;;;;;;89.30;23.85;;;;;;;;;;6228541;28;20052;-59
2022/03/10 06:42:13;;;;;;;53.80;16.73;;;;;;;;;;6229347;28;20087;-60
2022/03/10 06:45:13;;;;;;;34.70;13.20;;;;;;;;;;6241123;28;20514;-61
2022/03/10 06:48:14;;;;;;;35.10;13.07;;;;;;;;;;6240672;28;20438;-59
2022/03/10 06:51:15;;;;;;;29.13;11.20;;;;;;;;;;6241049;28;20141;-60
2022/03/10 06:54:17;;;;;;;27.30;9.85;;;;;;;;;;6233409;28;20140;-57
2022/03/10 06:57:18;;;;;;;;;;;;;;;;;;6239210;28;20061;-69
2022/03/10 07:00:20;;;;;;;23.08;8.63;;;;;;;;;;6226044;28;20383;-56
2022/03/10 07:03:21;;;;;;;28.52;9.65;;;;;;;;;;6235030;28;20049;-60
2022/03/10 07:06:26;;;;;;;22.48;9.00;;;;;;;;;;6241203;28;20057;-56
2022/03/10 07:09:27;;;;;;;34.97;9.68;;;;;;;;;;6231548;28;20045;-56
2022/03/10 07:12:28;;;;;;;23.70;7.97;;;;;;;;;;6238546;28;20087;-59
2022/03/10 07:15:28;;;;;;;26.52;9.65;;;;;;;;;;6235346;28;20386;-61
2022/03/10 07:18:29;;;;;;;28.25;8.85;;;;;;;;;;6229906;28;20076;-59
2022/03/10 07:21:30;;;;;;;27.67;9.65;;;;;;;;;;6226548;28;20137;-51
2022/03/10 07:24:31;;;;;;;24.52;9.85;;;;;;;;;;6235341;28;20089;-59
2022/03/10 07:27:32;;;;;;;29.58;11.63;;;;;;;;;;6234029;28;20195;-55
2022/03/10 07:30:33;;;;;;;26.25;9.93;;;;;;;;;;6234403;28;20056;-56
2022/03/10 07:33:33;;;;;;;34.47;11.70;;;;;;;;;;6233850;28;20051;-54
2022/03/10 07:36:34;;;;;;;32.22;11.43;;;;;;;;;;6242423;28;20073;-52
2022/03/10 07:39:35;;;;;;;37.47;12.25;;;;;;;;;;6218652;28;20111;-59
2022/03/10 07:42:35;;;;;;;34.75;12.18;;;;;;;;;;6231158;28;20053;-55
2022/03/10 07:45:36;;;;;;;31.70;12.20;;;;;;;;;;6240516;28;20067;-58
2022/03/10 07:48:37;;;;;;;28.90;11.88;;;;;;;;;;6232633;28;20053;-58
2022/03/10 07:51:42;;;;;;;41.38;13.80;;;;;;;;;;6245383;28;20136;-51
2022/03/10 07:54:43;;;;;;;27.38;10.35;;;;;;;;;;6225088;28;20403;-56
2022/03/10 07:57:43;;;;;;;22.80;8.98;;;;;;;;;;6224568;28;20042;-58
2022/03/10 08:00:44;;;;;;;24.65;10.68;;;;;;;;;;6226466;28;20077;-70
2022/03/10 08:03:47;;;;;;;27.45;10.00;;;;;;;;;;6239000;28;20070;-76
2022/03/10 08:06:47;;;;;;;31.30;10.65;;;;;;;;;;6226491;28;20045;-62
2022/03/10 08:09:48;;;;;;;24.33;9.82;;;;;;;;;;6230903;28;20077;-58
2022/03/10 08:12:49;;;;;;;30.05;10.45;;;;;;;;;;6221597;28;20533;-51
2022/03/10 08:15:49;;;;;;;29.65;10.57;;;;;;;;;;6220557;28;20132;-54
2022/03/10 08:18:50;;;;;;;27.88;11.43;;;;;;;;;;6235036;28;20397;-56
2022/03/10 08:21:51;;;;;;;38.28;11.68;;;;;;;;;;6244486;28;20077;-51
2022/03/10 08:24:52;;;;;;;21.75;8.50;;;;;;;;;;6223251;28;20074;-54
2022/03/10 08:27:52;;;;;;;25.83;9.23;;;;;;;;;;6227224;28;20051;-55
2022/03/10 08:30:54;;;;;;;20.38;8.00;;;;;;;;;;6241539;28;20042;-59
2022/03/10 08:33:54;;;;;;;24.35;9.15;;;;;;;;;;6238544;28;20133;-55
2022/03/10 08:36:55;;;;;;;18.75;7.55;;;;;;;;;;6242777;28;20400;-54
2022/03/10 08:39:56;;;;;;;20.75;7.72;;;;;;;;;;6234932;28;20100;-51
2022/03/10 08:42:57;;;;;;;24.15;8.15;;;;;;;;;;6239799;28;20057;-57
2022/03/10 08:45:58;;;;;;;25.88;7.82;;;;;;;;;;6243097;28;20053;-57
2022/03/10 08:49:00;;;;;;;29.17;9.07;;;;;;;;;;6242532;28;20058;-56
2022/03/10 08:52:01;;;;;;;24.58;8.43;;;;;;;;;;6241297;28;20456;-62
2022/03/10 08:55:05;;;;;;;18.23;6.60;;;;;;;;;;6241974;28;20064;-56
2022/03/10 08:58:06;;;;;;;18.45;6.78;;;;;;;;;;6238304;28;20140;-49
2022/03/10 09:01:06;;;;;;;17.73;6.82;;;;;;;;;;6239453;28;20095;-60
2022/03/10 09:04:07;;;;;;;13.75;6.10;;;;;;;;;;6238216;28;20128;-54
2022/03/10 09:07:08;;;;;;;18.42;7.45;;;;;;;;;;6241322;28;20049;-56
2022/03/10 09:10:10;;;;;;;18.50;7.38;;;;;;;;;;6234275;28;20099;-52
2022/03/10 09:13:10;;;;;;;21.00;7.65;;;;;;;;;;6234708;28;20454;-57
2022/03/10 09:16:11;;;;;;;15.80;6.07;;;;;;;;;;6233013;28;20141;-55
2022/03/10 09:19:12;;;;;;;15.32;6.03;;;;;;;;;;6224984;28;20096;-59
2022/03/10 09:22:12;;;;;;;17.45;7.35;;;;;;;;;;6232642;28;20092;-60
2022/03/10 09:25:13;;;;;;;16.33;6.95;;;;;;;;;;6229918;28;20185;-62
2022/03/10 09:28:14;;;;;;;17.40;6.63;;;;;;;;;;6233739;28;20132;-62
2022/03/10 09:31:18;;;;;;;11.50;5.60;;;;;;;;;;6237621;28;20500;-61
2022/03/10 09:34:19;;;;;;;14.68;5.70;;;;;;;;;;6236867;28;20043;-62
2022/03/10 09:37:20;;;;;;;17.85;6.38;;;;;;;;;;6236724;28;20112;-62
2022/03/10 09:40:20;;;;;;;23.38;8.38;;;;;;;;;;6240653;28;20148;-61
2022/03/10 09:43:22;;;;;;;20.80;9.23;;;;;;;;;;6240204;28;21568;-62
2022/03/10 09:46:23;;;;;;;18.17;8.23;;;;;;;;;;6241924;28;20053;-61
2022/03/10 09:49:24;;;;;;;17.20;7.00;;;;;;;;;;6238089;28;20042;-60
2022/03/10 09:52:27;;;;;;;16.60;6.22;;;;;;;;;;6237498;28;20563;-61
2022/03/10 09:55:28;;;;;;;15.43;6.55;;;;;;;;;;6240404;28;20077;-62
2022/03/10 09:58:30;;;;;;;15.93;7.38;;;;;;;;;;6237483;28;20043;-62
2022/03/10 10:01:30;;;;;;;14.48;6.03;;;;;;;;;;6236352;28;20100;-62
2022/03/10 10:04:31;;;;;;;15.70;5.88;;;;;;;;;;6226088;28;20080;-61
2022/03/10 10:07:32;;;;;;;13.95;5.80;;;;;;;;;;6223274;28;20049;-61
2022/03/10 10:10:34;;;;;;;16.30;5.65;;;;;;;;;;6241387;28;20041;-61
2022/03/10 10:13:42;;;;;;;14.57;6.18;;;;;;;;;;6225082;28;20115;-61
2022/03/10 10:16:48;;;;;;;15.38;6.40;;;;;;;;;;6243560;28;20049;-62
2022/03/10 10:19:54;;;;;;;15.70;6.25;;;;;;;;;;6229410;28;20045;-60
2022/03/10 10:22:54;;;;;;;22.33;7.68;;;;;;;;;;6231027;28;20038;-60
2022/03/10 10:26:01;;;;;;;22.60;7.47;;;;;;;;;;6221316;28;20707;-60
2022/03/10 10:29:04;;;;;;;20.85;7.00;;;;;;;;;;6224129;28;20080;-60
2022/03/10 10:32:05;;;;;;;20.98;6.75;;;;;;;;;;6226014;28;20119;-60
2022/03/10 10:35:08;;;;;;;29.27;9.20;;;;;;;;;;6228353;28;20176;-56
2022/03/10 10:38:09;;;;;;;16.02;6.63;;;;;;;;;;6243742;28;20068;-55
2022/03/10 10:41:26;;;;;;;13.13;6.32;;;;;;;;;;6224161;28;20136;-56
2022/03/10 10:44:28;;;;;;;14.32;6.28;;;;;;;;;;6235884;28;20504;-58
2022/03/10 10:47:29;;;;;;;17.75;6.85;;;;;;;;;;6238237;28;20386;-57
2022/03/10 10:50:35;;;;;;;17.00;7.15;;;;;;;;;;6232766;28;20049;-56
2022/03/10 10:53:39;;;;;;;27.10;8.77;;;;;;;;;;6235868;28;20049;-58
2022/03/10 10:57:06;;;;;;;40.10;10.93;;;;;;;;;;6240675;28;20451;-57
2022/03/10 11:00:10;;;;;;;15.35;6.40;;;;;;;;;;6223588;28;20061;-58
2022/03/10 11:03:25;;;;;;;12.98;5.60;;;;;;;;;;6231024;28;20515;-56
2022/03/10 11:06:25;;;;;;;16.02;6.45;;;;;;;;;;6219145;28;20046;-60
2022/03/10 11:09:26;;;;;;;38.05;10.63;;;;;;;;;;6224179;28;20072;-59
2022/03/10 11:12:27;;;;;;;21.60;8.13;;;;;;;;;;6222691;28;20092;-58
2022/03/10 11:15:28;;;;;;;19.60;7.93;;;;;;;;;;6221198;28;20151;-59
2022/03/10 11:18:29;;;;;;;14.85;6.47;;;;;;;;;;6231448;28;20042;-59
2022/03/10 11:21:55;;;;;;;15.30;6.03;;;;;;;;;;6226757;28;20077;-58
2022/03/10 11:25:15;;;;;;;13.05;6.15;;;;;;;;;;6242155;28;20419;-59
2022/03/10 11:28:31;;;;;;;18.85;7.97;;;;;;;;;;6239525;28;20477;-59
2022/03/10 11:31:33;;;;;;;16.70;7.22;;;;;;;;;;6246105;28;20144;-60
2022/03/10 11:34:45;;;;;;;34.67;11.38;;;;;;;;;;6236048;28;20049;-60
2022/03/10 11:37:50;;;;;;;28.00;10.82;;;;;;;;;;6238843;28;20042;-58
2022/03/10 11:40:52;;;;;;;19.05;7.10;;;;;;;;;;6230124;28;20046;-59
2022/03/10 11:43:56;;;;;;;16.25;6.32;;;;;;;;;;6235308;28;20088;-59
2022/03/10 11:46:59;;;;;;;16.92;7.25;;;;;;;;;;6234188;28;20184;-58
2022/03/10 11:50:20;;;;;;;16.25;6.68;;;;;;;;;;6241261;28;20061;-59
2022/03/10 11:53:21;;;;;;;17.48;6.80;;;;;;;;;;6220912;28;20188;-57
2022/03/10 11:56:43;;;;;;;12.80;6.13;;;;;;;;;;6234822;28;20092;-56
2022/03/10 11:59:46;;;;;;;20.10;6.65;;;;;;;;;;6232939;28;20056;-58
2022/03/10 12:02:57;;;;;;;20.60;7.20;;;;;;;;;;6238649;28;20088;-57
2022/03/10 12:06:12;;;;;;;24.20;8.32;;;;;;;;;;6232993;28;20057;-56
2022/03/10 12:09:28;;;;;;;12.32;6.10;;;;;;;;;;6232520;28;20054;-57
2022/03/10 12:12:34;;;;;;;13.07;6.47;;;;;;;;;;6241999;28;20543;-58
2022/03/10 12:15:35;;;;;;;16.00;6.28;;;;;;;;;;6242666;28;20095;-54
2022/03/10 12:18:39;;;;;;;14.85;5.80;;;;;;;;;;6242886;28;21538;-57
2022/03/10 12:21:40;;;;;;;13.07;5.95;;;;;;;;;;6236743;28;20041;-57
2022/03/10 12:24:40;;;;;;;17.02;6.82;;;;;;;;;;6240066;28;20135;-59
2022/03/10 12:27:55;;;;;;;12.77;5.82;;;;;;;;;;6237513;28;20046;-60
2022/03/10 12:31:04;;;;;;;15.25;6.22;;;;;;;;;;6242668;28;20050;-59
2022/03/10 12:34:08;;;;;;;12.95;6.07;;;;;;;;;;6234622;28;20049;-59
2022/03/10 12:37:14;;;;;;;17.95;6.38;;;;;;;;;;6241819;28;20138;-59
2022/03/10 12:40:20;;;;;;;15.73;5.55;;;;;;;;;;6232608;28;20045;-58
2022/03/10 12:43:28;;;;;;;14.57;6.18;;;;;;;;;;6240489;28;20069;-58
2022/03/10 12:46:29;;;;;;;11.77;5.55;;;;;;;;;;6242085;28;20049;-59
2022/03/10 12:49:37;;;;;;;15.23;6.67;;;;;;;;;;6242004;28;20056;-58
2022/03/10 12:52:40;;;;;;;13.00;5.88;;;;;;;;;;6240077;28;20127;-60
2022/03/10 12:55:41;;;;;;;11.88;6.25;;;;;;;;;;6239406;28;20053;-58
2022/03/10 12:58:45;;;;;;;14.10;5.65;;;;;;;;;;6230717;28;20131;-59
2022/03/10 13:01:46;;;;;;;13.00;5.72;;;;;;;;;;6240728;28;20092;-59
2022/03/10 13:04:50;;;;;;;13.73;6.25;;;;;;;;;;6243797;28;20053;-59
2022/03/10 13:07:51;;;;;;;16.25;5.80;;;;;;;;;;6241998;28;20053;-58
2022/03/10 13:10:59;;;;;;;16.63;6.65;;;;;;;;;;6244561;28;20088;-59
2022/03/10 13:14:10;;;;;;;12.73;5.80;;;;;;;;;;6229537;28;20050;-59
2022/03/10 13:17:13;;;;;;;14.50;5.88;;;;;;;;;;6222499;28;20144;-55
2022/03/10 13:20:16;;;;;;;13.80;5.78;;;;;;;;;;6225098;28;20049;-56
2022/03/10 13:23:24;;;;;;;13.98;6.20;;;;;;;;;;6230387;28;20061;-58
2022/03/10 13:26:25;;;;;;;17.95;6.70;;;;;;;;;;6240225;28;20046;-54
2022/03/10 13:29:26;;;;;;;14.32;6.88;;;;;;;;;;6225594;28;20099;-53
2022/03/10 13:32:33;;;;;;;14.02;6.00;;;;;;;;;;6240588;28;20120;-55
2022/03/10 13:35:36;;;;;;;19.30;7.30;;;;;;;;;;6230651;28;20057;-52
2022/03/10 13:38:38;;;;;;;20.45;7.93;;;;;;;;;;6238258;28;20045;-54
2022/03/10 13:41:43;;;;;;;20.05;7.72;;;;;;;;;;6217840;28;20049;-49
2022/03/10 13:44:44;;;;;;;14.30;7.38;;;;;;;;;;6233696;28;20045;-56
2022/03/10 13:47:59;;;;;;;13.70;5.53;;;;;;;;;;6222312;28;20061;-52
2022/03/10 13:51:04;;;;;;;13.27;6.32;;;;;;;;;;6227713;28;20046;-56
2022/03/10 13:54:05;;;;;;;14.73;6.45;;;;;;;;;;6232661;28;20114;-58
2022/03/10 13:57:06;;;;;;;13.18;6.45;;;;;;;;;;6228112;28;20058;-56
2022/03/10 14:00:07;;;;;;;14.93;6.85;;;;;;;;;;6228351;28;20069;-58
2022/03/10 14:03:20;;;;;;;15.30;6.53;;;;;;;;;;6229788;28;20498;-58
2022/03/10 14:06:20;;;;;;;;;;;;;;;;;;6243775;28;20516;-57
2022/03/10 14:09:25;;;;;;;21.65;7.72;;;;;;;;;;6228527;28;19921;-56
2022/03/10 14:12:26;;;;;;;13.88;6.78;;;;;;;;;;6219633;28;20448;-58
2022/03/10 14:15:32;;;;;;;11.65;5.55;;;;;;;;;;6241783;28;20056;-56
2022/03/10 14:18:35;;;;;;;13.20;6.03;;;;;;;;;;6237188;28;20731;-59
2022/03/10 14:21:36;;;;;;;14.30;6.35;;;;;;;;;;6240968;28;20096;-57
2022/03/10 14:24:37;;;;;;;13.82;6.28;;;;;;;;;;6235092;28;20490;-58
2022/03/10 14:27:45;;;;;;;13.38;6.10;;;;;;;;;;6240089;28;20046;-59
2022/03/10 14:30:49;;;;;;;14.52;6.60;;;;;;;;;;6236574;28;20052;-56
2022/03/10 14:33:51;;;;;;;16.38;6.88;;;;;;;;;;6240288;28;20041;-56
2022/03/10 14:36:52;;;;;;;17.63;7.00;;;;;;;;;;6228226;28;20045;-57
2022/03/10 14:39:53;;;;;;;16.10;6.65;;;;;;;;;;6225814;28;20053;-56
2022/03/10 14:42:54;;;;;;;12.63;5.88;;;;;;;;;;6223142;28;20465;-58
2022/03/10 14:45:55;;;;;;;16.80;7.60;;;;;;;;;;6237400;28;20516;-59
2022/03/10 14:48:55;;;;;;;19.17;8.10;;;;;;;;;;6239304;28;20064;-58
2022/03/10 14:51:56;;;;;;;16.88;7.72;;;;;;;;;;6240088;28;20414;-58
2022/03/10 14:54:57;;;;;;;17.85;5.57;;;;;;;;;;6239985;28;20053;-57
2022/03/10 14:57:57;;;;;;;15.65;6.40;;;;;;;;;;6235890;28;20045;-56
2022/03/10 15:00:58;;;;;;;14.50;6.82;;;;;;;;;;6226179;28;20088;-58
2022/03/10 15:03:59;;;;;;;14.95;7.25;;;;;;;;;;6237256;28;20409;-57
2022/03/10 15:07:00;;;;;;;16.95;7.35;;;;;;;;;;6232805;28;20132;-56
2022/03/10 15:10:00;;;;;;;17.20;6.15;;;;;;;;;;6228230;28;20053;-58
2022/03/10 15:13:01;;;;;;;14.02;6.13;;;;;;;;;;6235151;28;20046;-54
2022/03/10 15:16:02;;;;;;;17.02;7.00;;;;;;;;;;6234286;28;20049;-57
2022/03/10 15:19:03;;;;;;;14.60;6.63;;;;;;;;;;6236442;28;20046;-57
2022/03/10 15:22:04;;;;;;;18.95;7.22;;;;;;;;;;6235208;28;20049;-55
2022/03/10 15:25:06;;;;;;;14.43;7.03;;;;;;;;;;6231518;28;20112;-56
2022/03/10 15:28:09;;;;;;;19.08;7.30;;;;;;;;;;6235952;28;20070;-55
2022/03/10 15:31:11;;;;;;;26.38;10.77;;;;;;;;;;6231977;28;20493;-55
2022/03/10 15:34:14;;;;;;;18.48;7.93;;;;;;;;;;6237849;28;20491;-59
2022/03/10 15:37:14;;;;;;;17.48;7.15;;;;;;;;;;6240629;28;20164;-57
2022/03/10 15:40:16;;;;;;;19.40;7.70;;;;;;;;;;6236991;28;20080;-59
2022/03/10 15:43:18;;;;;;;19.02;7.97;;;;;;;;;;6239017;28;20568;-61
2022/03/10 15:46:19;;;;;;;16.98;7.05;;;;;;;;;;6237158;28;20049;-55
2022/03/10 15:49:21;;;;;;;16.60;7.95;;;;;;;;;;6241507;28;20081;-54
2022/03/10 15:52:22;;;;;;;16.85;7.53;;;;;;;;;;6239413;28;20918;-56
2022/03/10 15:55:22;;;;;;;21.08;8.20;;;;;;;;;;6238100;28;20041;-58
2022/03/10 15:58:26;;;;;;;16.08;7.55;;;;;;;;;;6239929;28;20131;-56
2022/03/10 16:01:27;;;;;;;16.80;7.47;;;;;;;;;;6228831;28;20046;-56
2022/03/10 16:04:30;;;;;;;20.10;8.25;;;;;;;;;;6240989;28;20053;-57
2022/03/10 16:07:31;;;;;;;20.70;8.60;;;;;;;;;;6241004;28;20085;-57
2022/03/10 16:10:32;;;;;;;18.55;8.77;;;;;;;;;;6235936;28;20056;-59
2022/03/10 16:13:32;;;;;;;19.02;8.10;;;;;;;;;;6242154;28;20049;-59
2022/03/10 16:16:34;;;;;;;23.48;8.88;;;;;;;;;;6233442;28;20088;-52
2022/03/10 16:19:38;;;;;;;31.25;10.88;;;;;;;;;;6215929;28;20046;-62
2022/03/10 16:22:42;;;;;;;26.42;10.00;;;;;;;;;;6219712;28;20076;-56
2022/03/10 16:25:43;;;;;;;26.05;10.60;;;;;;;;;;6218908;28;20060;-53
2022/03/10 16:28:44;;;;;;;33.25;11.77;;;;;;;;;;6222735;28;20053;-53
2022/03/10 16:31:44;;;;;;;31.17;11.50;;;;;;;;;;6222780;28;20966;-54
2022/03/10 16:34:45;;;;;;;31.48;10.85;;;;;;;;;;6224405;28;20046;-53
2022/03/10 16:37:46;;;;;;;27.55;10.32;;;;;;;;;;6220944;28;20053;-52
2022/03/10 16:40:48;;;;;;;30.93;10.07;;;;;;;;;;6223985;28;20046;-52
2022/03/10 16:43:50;;;;;;;23.40;10.07;;;;;;;;;;6225502;28;20099;-53
2022/03/10 16:46:51;;;;;;;40.60;15.23;;;;;;;;;;6226119;28;20132;-50
2022/03/10 16:49:52;;;;;;;24.80;11.20;;;;;;;;;;6228207;28;20053;-55
2022/03/10 16:52:53;;;;;;;23.23;10.98;;;;;;;;;;6219732;28;20045;-52
2022/03/10 16:55:54;;;;;;;28.45;12.27;;;;;;;;;;6221450;28;20081;-54
2022/03/10 16:58:55;;;;;;;32.13;10.75;;;;;;;;;;6220712;28;20077;-51
2022/03/10 17:01:58;;;;;;;30.77;11.13;;;;;;;;;;6221776;28;20046;-51
2022/03/10 17:04:59;;;;;;;36.75;11.98;;;;;;;;;;6221141;28;20062;-54
2022/03/10 17:07:59;;;;;;;40.72;12.52;;;;;;;;;;6220982;28;20057;-57
2022/03/10 17:11:01;;;;;;;38.50;14.02;;;;;;;;;;6222409;28;20088;-54
2022/03/10 17:14:02;;;;;;;45.90;14.60;;;;;;;;;;6220634;28;20050;-52
2022/03/10 17:17:03;;;;;;;55.58;17.50;;;;;;;;;;6221310;28;20550;-52
2022/03/10 17:20:04;;;;;;;56.95;16.55;;;;;;;;;;6221199;28;20057;-48
2022/03/10 17:23:07;;;;;;;58.08;18.90;;;;;;;;;;6217572;28;20084;-53
2022/03/10 17:26:08;;;;;;;48.50;17.08;;;;;;;;;;6220522;28;20062;-50
2022/03/10 17:29:10;;;;;;;44.10;17.13;;;;;;;;;;6219409;28;20052;-52
2022/03/10 17:32:10;;;;;;;59.67;20.83;;;;;;;;;;6223120;28;20072;-54
2022/03/10 17:35:11;;;;;;;77.72;25.13;;;;;;;;;;6223446;28;20061;-54
2022/03/10 17:38:12;;;;;;;85.97;25.83;;;;;;;;;;6223350;28;20068;-52
2022/03/10 17:41:13;;;;;;;48.15;17.65;;;;;;;;;;6221856;28;20627;-53
2022/03/10 17:44:15;;;;;;;36.72;14.73;;;;;;;;;;6218053;28;20045;-58
2022/03/10 17:47:16;;;;;;;35.17;13.70;;;;;;;;;;6222727;28;20057;-56
2022/03/10 17:50:23;;;;;;;35.40;13.20;;;;;;;;;;6220680;28;20053;-57
2022/03/10 17:53:25;;;;;;;38.00;13.20;;;;;;;;;;6220683;28;20500;-52
2022/03/10 17:56:45;;;;;;;52.95;18.02;;;;;;;;;;6220067;28;20062;-53